Time;durP1;ratioP1;P1;durP2;ratioP2;P2;SDS_P1;SDS_P2;PMS_P1;PMS_P2;Temp;Humidity;BMP_temperature;BMP_pressure;BME280_temperature;BME280_humidity;BME280_pressure;Samples;Min_cycle;Max_cycle;Signal;HPM_P1;HPM_P2
2023/07/08 00:00:37;;;;;;;;;11.00;11.00;;;;;;;;5064168;28;45472;-76
2023/07/08 00:03:03;;;;;;;;;12.33;12.00;;;;;;;;5063127;28;47112;-76
2023/07/08 00:05:28;;;;;;;;;11.00;11.00;;;;;;;;5081939;28;45278;-75
2023/07/08 00:07:53;;;;;;;;;9.33;8.67;;;;;;;;5082292;28;45314;-77
2023/07/08 00:10:20;;;;;;;;;12.33;12.00;;;;;;;;5082295;28;45224;-76
2023/07/08 00:12:47;;;;;;;;;11.00;10.33;;;;;;;;5063668;28;47173;-76
2023/07/08 00:15:13;;;;;;;;;12.00;10.00;;;;;;;;5063772;28;48116;-76
2023/07/08 00:17:38;;;;;;;;;10.67;10.67;;;;;;;;5063597;28;45368;-76
2023/07/08 00:20:09;;;;;;;;;11.00;9.00;;;;;;;;5082118;28;45557;-76
2023/07/08 00:22:36;;;;;;;;;9.00;9.00;;;;;;;;5081916;28;45357;-76
2023/07/08 00:25:01;;;;;;;;;10.33;10.00;;;;;;;;5081882;28;46439;-76
2023/07/08 00:27:26;;;;;;;;;10.00;10.00;;;;;;;;5082012;28;45353;-76
2023/07/08 00:29:51;;;;;;;;;11.00;11.00;;;;;;;;5095225;27;45338;-76
2023/07/08 00:32:16;;;;;;;;;11.33;11.00;;;;;;;;5083828;27;47346;-76
2023/07/08 00:34:42;;;;;;;;;9.67;8.67;;;;;;;;5102030;27;45511;-76
2023/07/08 00:37:10;;;;;;;;;10.00;10.00;;;;;;;;5083616;27;46083;-76
2023/07/08 00:39:35;;;;;;;;;9.00;9.00;;;;;;;;5102449;27;45184;-76
2023/07/08 00:42:01;;;;;;;;;15.00;14.00;;;;;;;;5083727;27;45917;-77
2023/07/08 00:44:26;;;;;;;;;12.67;12.67;;;;;;;;5101784;27;45753;-76
2023/07/08 00:46:57;;;;;;;;;10.33;10.33;;;;;;;;5102223;27;45204;-76
2023/07/08 00:49:26;;;;;;;;;7.67;7.67;;;;;;;;5102128;27;45377;-76
2023/07/08 00:51:51;;;;;;;;;13.33;12.00;;;;;;;;5101855;27;45285;-76
2023/07/08 00:54:18;;;;;;;;;12.33;11.33;;;;;;;;5101830;27;46346;-76
2023/07/08 00:56:46;;;;;;;;;10.67;10.67;;;;;;;;5102006;27;45224;-76
2023/07/08 00:59:15;;;;;;;;;12.67;10.33;;;;;;;;5083677;27;45285;-76
2023/07/08 01:01:43;;;;;;;;;14.67;13.00;;;;;;;;5101793;27;45330;-76
2023/07/08 01:04:19;;;;;;;;;8.00;8.00;;;;;;;;5101824;27;46967;-76
2023/07/08 01:06:47;;;;;;;;;11.33;11.00;;;;;;;;5083137;27;45371;-76
2023/07/08 01:09:13;;;;;;;;;14.33;11.33;;;;;;;;5101961;27;45381;-76
2023/07/08 01:11:40;;;;;;;;;15.00;15.00;;;;;;;;5101592;27;45302;-76
2023/07/08 01:14:07;;;;;;;;;11.67;10.33;;;;;;;;5101534;27;45310;-75
2023/07/08 01:16:35;;;;;;;;;9.00;9.00;;;;;;;;5101009;27;45205;-76
2023/07/08 01:19:02;;;;;;;;;11.67;11.67;;;;;;;;5101563;27;45401;-77
2023/07/08 01:21:30;;;;;;;;;11.67;11.67;;;;;;;;5101258;27;45469;-76
2023/07/08 01:23:55;;;;;;;;;12.00;12.00;;;;;;;;5082983;27;48607;-76
2023/07/08 01:26:22;;;;;;;;;13.00;10.33;;;;;;;;5101506;27;45234;-76
2023/07/08 01:28:48;;;;;;;;;12.67;12.00;;;;;;;;5097037;27;45250;-76
2023/07/08 01:31:13;;;;;;;;;12.00;12.00;;;;;;;;5062496;28;47155;-76
2023/07/08 01:33:38;;;;;;;;;11.00;11.00;;;;;;;;5080684;28;45379;-76
2023/07/08 01:36:04;;;;;;;;;10.67;9.33;;;;;;;;5062197;28;45251;-76
2023/07/08 01:38:29;;;;;;;;;13.00;13.00;;;;;;;;5062732;28;45597;-76
2023/07/08 01:40:56;;;;;;;;;10.67;10.33;;;;;;;;5080587;28;45335;-76
2023/07/08 01:43:21;;;;;;;;;13.00;12.33;;;;;;;;5062260;28;47549;-76
2023/07/08 01:45:47;;;;;;;;;10.00;10.00;;;;;;;;5080341;28;45344;-76
2023/07/08 01:48:14;;;;;;;;;12.00;11.67;;;;;;;;5080741;28;45301;-76
2023/07/08 01:50:51;;;;;;;;;13.00;12.33;;;;;;;;5080141;28;45298;-76
2023/07/08 01:53:21;;;;;;;;;10.67;10.67;;;;;;;;5080233;28;46240;-76
2023/07/08 01:55:47;;;;;;;;;10.33;10.33;;;;;;;;5062079;28;45330;-76
2023/07/08 01:58:12;;;;;;;;;11.33;11.00;;;;;;;;5062168;28;45465;-76
2023/07/08 02:00:37;;;;;;;;;13.00;12.33;;;;;;;;5080403;28;45383;-76
2023/07/08 02:03:02;;;;;;;;;12.67;12.00;;;;;;;;5080366;28;46167;-76
2023/07/08 02:05:27;;;;;;;;;12.67;11.67;;;;;;;;5061852;28;46145;-76
2023/07/08 02:07:53;;;;;;;;;12.00;11.33;;;;;;;;5080533;28;45387;-75
2023/07/08 02:10:18;;;;;;;;;12.67;11.67;;;;;;;;5080227;28;45327;-76
2023/07/08 02:12:43;;;;;;;;;9.33;9.00;;;;;;;;5080143;28;46270;-76
2023/07/08 02:15:09;;;;;;;;;15.00;14.00;;;;;;;;5061871;28;45447;-75
2023/07/08 02:17:34;;;;;;;;;11.00;11.00;;;;;;;;5080408;28;45292;-76
2023/07/08 02:19:59;;;;;;;;;9.67;9.67;;;;;;;;5080042;28;45669;-76
2023/07/08 02:22:24;;;;;;;;;12.00;11.67;;;;;;;;5079940;28;45635;-76
2023/07/08 02:24:49;;;;;;;;;13.00;11.33;;;;;;;;5061249;28;45449;-76
2023/07/08 02:27:15;;;;;;;;;13.33;13.33;;;;;;;;5080185;28;45232;-75
2023/07/08 02:29:40;;;;;;;;;12.00;12.00;;;;;;;;5091582;27;45369;-77
2023/07/08 02:32:06;;;;;;;;;11.00;11.00;;;;;;;;5100400;27;46192;-76
2023/07/08 02:34:31;;;;;;;;;12.67;12.67;;;;;;;;5085367;27;45295;-76
2023/07/08 02:36:56;;;;;;;;;10.67;10.67;;;;;;;;5080046;28;45304;-76
2023/07/08 02:39:22;;;;;;;;;11.33;11.33;;;;;;;;5079912;28;45413;-77
2023/07/08 02:41:47;;;;;;;;;8.33;8.33;;;;;;;;5079987;28;45326;-76
2023/07/08 02:44:12;;;;;;;;;10.33;9.33;;;;;;;;5079529;28;45521;-75
2023/07/08 02:46:38;;;;;;;;;11.00;11.00;;;;;;;;5079772;28;45254;-76
2023/07/08 02:49:04;;;;;;;;;9.67;9.67;;;;;;;;5061619;28;46095;-75
2023/07/08 02:51:29;;;;;;;;;10.33;10.00;;;;;;;;5061103;28;48627;-76
2023/07/08 02:53:54;;;;;;;;;9.67;9.67;;;;;;;;5079523;28;45258;-75
2023/07/08 02:56:20;;;;;;;;;10.00;9.33;;;;;;;;5079905;28;45509;-76
2023/07/08 02:58:46;;;;;;;;;13.00;12.33;;;;;;;;5079594;28;45373;-76
2023/07/08 03:01:11;;;;;;;;;11.33;10.67;;;;;;;;5079525;28;46056;-76
2023/07/08 03:03:37;;;;;;;;;10.00;10.00;;;;;;;;5079640;28;45325;-76
2023/07/08 03:06:05;;;;;;;;;11.00;10.67;;;;;;;;5079614;28;45255;-76
2023/07/08 03:08:30;;;;;;;;;9.00;8.33;;;;;;;;5079643;28;45427;-76
2023/07/08 03:10:57;;;;;;;;;8.00;6.67;;;;;;;;5079367;28;45350;-75
2023/07/08 03:13:22;;;;;;;;;6.33;6.33;;;;;;;;5061174;28;45299;-76
2023/07/08 03:15:47;;;;;;;;;9.00;7.67;;;;;;;;5079567;28;45278;-77
2023/07/08 03:18:12;;;;;;;;;6.67;6.67;;;;;;;;5079494;28;45204;-77
2023/07/08 03:20:44;;;;;;;;;7.67;7.67;;;;;;;;5079081;28;45254;-76
2023/07/08 03:23:10;;;;;;;;;6.33;5.67;;;;;;;;5079354;28;45369;-76
2023/07/08 03:25:36;;;;;;;;;8.67;8.67;;;;;;;;5061327;28;45241;-76
2023/07/08 03:28:01;;;;;;;;;6.00;6.00;;;;;;;;5079280;28;45234;-76
2023/07/08 03:30:26;;;;;;;;;6.75;6.75;;;;;;;;5097328;27;46179;-76
2023/07/08 03:32:53;;;;;;;;;9.33;8.00;;;;;;;;5099675;27;45199;-76
2023/07/08 03:35:18;;;;;;;;;7.00;7.00;;;;;;;;5081003;27;45249;-75
2023/07/08 03:37:43;;;;;;;;;7.00;6.00;;;;;;;;5101327;27;45188;-76
2023/07/08 03:40:10;;;;;;;;;5.67;5.67;;;;;;;;5084753;27;47464;-76
2023/07/08 03:42:35;;;;;;;;;7.67;7.00;;;;;;;;5103006;27;45552;-75
2023/07/08 03:45:00;;;;;;;;;7.00;7.00;;;;;;;;5084859;27;45330;-75
2023/07/08 03:47:25;;;;;;;;;5.00;5.00;;;;;;;;5084412;27;45790;-76
2023/07/08 03:49:50;;;;;;;;;7.00;7.00;;;;;;;;5102811;27;46278;-75
2023/07/08 03:52:16;;;;;;;;;5.33;5.00;;;;;;;;5102860;27;45310;-75
2023/07/08 03:54:42;;;;;;;;;7.00;6.67;;;;;;;;5103053;27;45339;-75
2023/07/08 03:57:07;;;;;;;;;6.67;6.67;;;;;;;;5102842;27;45559;-76
2023/07/08 03:59:32;;;;;;;;;7.67;7.33;;;;;;;;5102873;27;45403;-75
2023/07/08 04:01:57;;;;;;;;;7.33;7.33;;;;;;;;5102970;27;45392;-75
2023/07/08 04:04:22;;;;;;;;;7.00;7.00;;;;;;;;5084295;27;45361;-76
2023/07/08 04:06:47;;;;;;;;;6.33;6.00;;;;;;;;5102680;27;45401;-76
2023/07/08 04:09:13;;;;;;;;;7.00;7.00;;;;;;;;5102690;27;45413;-76
2023/07/08 04:11:38;;;;;;;;;8.00;7.00;;;;;;;;5102688;27;45389;-76
2023/07/08 04:14:03;;;;;;;;;6.00;6.00;;;;;;;;5102583;27;45330;-75
2023/07/08 04:16:30;;;;;;;;;4.33;3.33;;;;;;;;5102662;27;45358;-75
2023/07/08 04:18:56;;;;;;;;;7.67;7.67;;;;;;;;5102451;27;46304;-74
2023/07/08 04:21:22;;;;;;;;;9.67;9.67;;;;;;;;5102237;27;45269;-75
2023/07/08 04:23:47;;;;;;;;;8.00;7.67;;;;;;;;5102590;27;45233;-74
2023/07/08 04:26:13;;;;;;;;;7.33;7.33;;;;;;;;5102316;27;45415;-75
2023/07/08 04:28:38;;;;;;;;;6.33;6.00;;;;;;;;5099351;27;46268;-74
2023/07/08 04:31:03;;;;;;;;;7.00;7.00;;;;;;;;5063628;28;45340;-75
2023/07/08 04:33:29;;;;;;;;;7.00;6.00;;;;;;;;5082071;28;45509;-75
2023/07/08 04:35:54;;;;;;;;;7.67;7.00;;;;;;;;5081461;28;45283;-74
2023/07/08 04:38:21;;;;;;;;;8.67;7.67;;;;;;;;5081793;28;45307;-75
2023/07/08 04:40:47;;;;;;;;;7.00;7.00;;;;;;;;5081759;28;45400;-75
2023/07/08 04:43:12;;;;;;;;;7.67;5.00;;;;;;;;5081623;28;45328;-75
2023/07/08 04:45:39;;;;;;;;;7.00;5.33;;;;;;;;5063276;28;46359;-75
2023/07/08 04:48:12;;;;;;;;;7.33;6.00;;;;;;;;5081246;28;45330;-74
2023/07/08 04:50:38;;;;;;;;;7.00;6.00;;;;;;;;5081090;28;45389;-75
2023/07/08 04:53:03;;;;;;;;;8.33;8.33;;;;;;;;5081591;28;45303;-75
2023/07/08 04:55:28;;;;;;;;;9.00;7.67;;;;;;;;5081600;28;45582;-74
2023/07/08 04:57:53;;;;;;;;;7.67;7.67;;;;;;;;5081565;28;45331;-74
2023/07/08 05:00:19;;;;;;;;;7.00;7.00;;;;;;;;5081525;28;45413;-74
2023/07/08 05:02:45;;;;;;;;;7.00;7.00;;;;;;;;5081615;28;45312;-75
2023/07/08 05:05:10;;;;;;;;;7.00;7.00;;;;;;;;5062848;28;47149;-74
2023/07/08 05:07:35;;;;;;;;;7.00;7.00;;;;;;;;5081188;28;45991;-75
2023/07/08 05:10:00;;;;;;;;;8.67;8.67;;;;;;;;5081466;28;45200;-74
2023/07/08 05:12:26;;;;;;;;;8.33;8.00;;;;;;;;5081305;28;45538;-75
2023/07/08 05:14:52;;;;;;;;;8.67;7.67;;;;;;;;5081334;28;45216;-74
2023/07/08 05:17:17;;;;;;;;;6.67;6.67;;;;;;;;5062825;28;47164;-74
2023/07/08 05:19:44;;;;;;;;;8.00;7.33;;;;;;;;5081038;28;45274;-74
2023/07/08 05:22:09;;;;;;;;;8.00;8.00;;;;;;;;5062912;28;45316;-74
2023/07/08 05:24:34;;;;;;;;;7.00;7.00;;;;;;;;5062561;28;46018;-74
2023/07/08 05:27:00;;;;;;;;;7.67;7.67;;;;;;;;5080216;28;46584;-76
2023/07/08 05:29:25;;;;;;;;;9.00;8.00;;;;;;;;5090487;27;45267;-74
2023/07/08 05:31:50;;;;;;;;;9.00;9.00;;;;;;;;5083311;27;45534;-74
2023/07/08 05:34:15;;;;;;;;;11.00;9.33;;;;;;;;5101220;27;45363;-74
2023/07/08 05:36:41;;;;;;;;;6.00;6.00;;;;;;;;5101163;27;45878;-74
2023/07/08 05:39:06;;;;;;;;;7.00;7.00;;;;;;;;5082758;27;45345;-74
2023/07/08 05:41:31;;;;;;;;;7.67;6.67;;;;;;;;5101457;27;45353;-74
2023/07/08 05:43:57;;;;;;;;;7.67;7.33;;;;;;;;5100910;27;45372;-75
2023/07/08 05:46:22;;;;;;;;;7.00;6.00;;;;;;;;5081936;27;45606;-75
2023/07/08 05:48:48;;;;;;;;;9.33;9.33;;;;;;;;5068084;28;45347;-75
2023/07/08 05:51:13;;;;;;;;;5.33;5.33;;;;;;;;5071015;28;45390;-77
2023/07/08 05:53:39;;;;;;;;;5.75;5.75;;;;;;;;5060341;28;45316;-76
2023/07/08 05:56:04;;;;;;;;;7.67;6.00;;;;;;;;5060200;28;46215;-76
2023/07/08 05:58:29;;;;;;;;;6.67;6.67;;;;;;;;5060338;28;45367;-75
2023/07/08 06:00:56;;;;;;;;;7.33;7.00;;;;;;;;5041335;28;45232;-77
2023/07/08 06:03:21;;;;;;;;;8.33;7.33;;;;;;;;5060098;28;45454;-77
2023/07/08 06:05:47;;;;;;;;;6.67;6.67;;;;;;;;5059989;28;46131;-76
2023/07/08 06:08:12;;;;;;;;;8.33;6.67;;;;;;;;5060644;28;45740;-76
2023/07/08 06:10:41;;;;;;;;;6.00;5.00;;;;;;;;5060820;28;45764;-77
2023/07/08 06:13:06;;;;;;;;;6.33;6.33;;;;;;;;5059969;28;45288;-73
2023/07/08 06:15:31;;;;;;;;;6.00;6.00;;;;;;;;5041842;28;47083;-73
2023/07/08 06:18:00;;;;;;;;;6.00;6.00;;;;;;;;5059888;28;45375;-74
2023/07/08 06:20:25;;;;;;;;;5.67;5.67;;;;;;;;5041681;28;45194;-74
2023/07/08 06:22:51;;;;;;;;;7.33;6.67;;;;;;;;5041713;28;46094;-74
2023/07/08 06:25:16;;;;;;;;;5.67;5.33;;;;;;;;5059775;28;45381;-75
2023/07/08 06:27:41;;;;;;;;;17.00;16.33;;;;;;;;5062429;28;45886;-76
2023/07/08 06:30:06;;;;;;;;;9.67;9.67;;;;;;;;5072714;28;45385;-74
2023/07/08 06:32:32;;;;;;;;;7.00;7.00;;;;;;;;5079782;27;45303;-74
2023/07/08 06:34:57;;;;;;;;;6.67;6.67;;;;;;;;5088779;27;45351;-74
2023/07/08 06:37:22;;;;;;;;;4.25;4.25;;;;;;;;5067581;27;45421;-75
2023/07/08 06:39:47;;;;;;;;;4.00;4.00;;;;;;;;5089743;27;45351;-75
2023/07/08 06:42:12;;;;;;;;;7.00;7.00;;;;;;;;5072722;27;47260;-75
2023/07/08 06:44:37;;;;;;;;;5.50;4.25;;;;;;;;5073558;27;46190;-75
2023/07/08 06:47:03;;;;;;;;;5.00;5.00;;;;;;;;5064554;28;45797;-74
2023/07/08 06:49:28;;;;;;;;;5.00;4.00;;;;;;;;5099700;27;45496;-75
2023/07/08 06:51:57;;;;;;;;;4.00;4.00;;;;;;;;5085452;27;46636;-75
2023/07/08 06:54:22;;;;;;;;;5.00;5.00;;;;;;;;5078261;28;47136;-74
2023/07/08 06:56:47;;;;;;;;;5.33;4.67;;;;;;;;5079121;28;45383;-75
2023/07/08 06:59:12;;;;;;;;;4.00;4.00;;;;;;;;5079628;28;45310;-74
2023/07/08 07:01:38;;;;;;;;;4.00;4.00;;;;;;;;5079651;28;45310;-74
2023/07/08 07:04:03;;;;;;;;;6.33;5.00;;;;;;;;5079346;28;45394;-75
2023/07/08 07:06:29;;;;;;;;;4.00;4.00;;;;;;;;5060903;28;45354;-75
2023/07/08 07:08:54;;;;;;;;;4.00;4.00;;;;;;;;5078613;28;45363;-73
2023/07/08 07:11:19;;;;;;;;;4.25;3.25;;;;;;;;5080636;28;45435;-74
2023/07/08 07:13:45;;;;;;;;;2.50;2.50;;;;;;;;5082988;28;45238;-73
2023/07/08 07:16:10;;;;;;;;;5.00;3.75;;;;;;;;5083145;28;45260;-73
2023/07/08 07:18:35;;;;;;;;;3.25;3.25;;;;;;;;5064983;28;45355;-74
2023/07/08 07:21:00;;;;;;;;;3.50;3.50;;;;;;;;5082969;28;45546;-75
2023/07/08 07:23:25;;;;;;;;;4.50;4.00;;;;;;;;5079445;28;45568;-74
2023/07/08 07:25:51;;;;;;;;;5.50;5.00;;;;;;;;5081058;28;45369;-73
2023/07/08 07:28:16;;;;;;;;;4.50;4.50;;;;;;;;5064685;28;45277;-74
2023/07/08 07:30:42;;;;;;;;;3.75;3.75;;;;;;;;5103919;27;45236;-74
2023/07/08 07:33:07;;;;;;;;;6.00;5.00;;;;;;;;5095045;27;46126;-74
2023/07/08 07:35:32;;;;;;;;;6.67;6.33;;;;;;;;5088208;28;45287;-74
2023/07/08 07:37:57;;;;;;;;;3.25;3.25;;;;;;;;5091860;28;45264;-74
2023/07/08 07:40:22;;;;;;;;;3.75;3.75;;;;;;;;5087090;28;45357;-75
2023/07/08 07:42:48;;;;;;;;;4.50;3.75;;;;;;;;5082532;28;46184;-75
2023/07/08 07:45:13;;;;;;;;;5.00;5.00;;;;;;;;5083763;28;45311;-76
2023/07/08 07:47:38;;;;;;;;;6.00;5.00;;;;;;;;5084635;28;45285;-78
2023/07/08 07:50:04;;;;;;;;;5.75;4.75;;;;;;;;5065070;28;46933;-78
2023/07/08 07:52:30;;;;;;;;;4.00;3.25;;;;;;;;5084568;28;46817;-78
2023/07/08 07:54:55;;;;;;;;;5.50;5.00;;;;;;;;5070532;28;45321;-75
2023/07/08 07:57:21;;;;;;;;;4.00;4.00;;;;;;;;5061639;28;45786;-76
2023/07/08 07:59:48;;;;;;;;;7.67;7.67;;;;;;;;5083707;28;45358;-77
2023/07/08 08:02:13;;;;;;;;;5.00;5.00;;;;;;;;5096965;28;45309;-77
2023/07/08 08:04:39;;;;;;;;;3.50;3.50;;;;;;;;5097518;28;45927;-75
2023/07/08 08:07:04;;;;;;;;;4.00;4.00;;;;;;;;5094076;28;45442;-74
2023/07/08 08:09:29;;;;;;;;;4.00;4.00;;;;;;;;5070450;28;46028;-75
2023/07/08 08:11:55;;;;;;;;;3.50;3.50;;;;;;;;5081922;28;45413;-76
2023/07/08 08:14:20;;;;;;;;;5.00;5.00;;;;;;;;5079320;28;45254;-74
2023/07/08 08:16:45;;;;;;;;;5.25;5.00;;;;;;;;5081910;28;45307;-75
2023/07/08 08:19:10;;;;;;;;;4.25;4.25;;;;;;;;5081297;28;45327;-74
2023/07/08 08:21:36;;;;;;;;;5.00;4.25;;;;;;;;5069352;28;45434;-75
2023/07/08 08:24:01;;;;;;;;;7.00;5.33;;;;;;;;5078518;28;45361;-74
2023/07/08 08:26:27;;;;;;;;;4.00;4.00;;;;;;;;5081010;28;45303;-75
2023/07/08 08:28:52;;;;;;;;;5.00;5.00;;;;;;;;5085958;27;45279;-74
2023/07/08 08:31:17;;;;;;;;;6.00;5.67;;;;;;;;5101967;27;45370;-75
2023/07/08 08:33:43;;;;;;;;;5.33;5.33;;;;;;;;5102012;27;45376;-75
2023/07/08 08:36:08;;;;;;;;;5.67;4.00;;;;;;;;5101364;27;45658;-77
2023/07/08 08:38:33;;;;;;;;;8.67;5.67;;;;;;;;5090015;27;46393;-74
2023/07/08 08:41:02;;;;;;;;;5.00;5.00;;;;;;;;5086715;27;47068;-75
2023/07/08 08:43:36;;;;;;;;;4.33;4.33;;;;;;;;5104950;27;45357;-74
2023/07/08 08:46:01;;;;;;;;;4.67;4.67;;;;;;;;5089453;27;45343;-74
2023/07/08 08:48:27;;;;;;;;;7.00;6.25;;;;;;;;5082375;28;45365;-75
2023/07/08 08:50:55;;;;;;;;;6.00;4.33;;;;;;;;5087920;28;45464;-75
2023/07/08 08:53:22;;;;;;;;;5.00;5.00;;;;;;;;5089687;28;45349;-74
2023/07/08 08:55:51;;;;;;;;;6.67;6.67;;;;;;;;5095632;28;45268;-77
2023/07/08 08:58:24;;;;;;;;;5.67;5.00;;;;;;;;5095882;28;45342;-74
2023/07/08 09:00:57;;;;;;;;;5.00;5.00;;;;;;;;5082190;28;45417;-74
2023/07/08 09:03:33;;;;;;;;;5.67;5.67;;;;;;;;5088291;28;45234;-74
2023/07/08 09:06:00;;;;;;;;;6.00;6.00;;;;;;;;5093928;28;45406;-76
2023/07/08 09:08:31;;;;;;;;;5.00;5.00;;;;;;;;5074933;28;46256;-75
2023/07/08 09:11:10;;;;;;;;;7.00;7.00;;;;;;;;5095395;28;45282;-77
2023/07/08 09:13:37;;;;;;;;;5.33;5.33;;;;;;;;5088950;28;45454;-76
2023/07/08 09:16:07;;;;;;;;;8.67;7.67;;;;;;;;5091766;28;45294;-75
2023/07/08 09:18:36;;;;;;;;;7.67;7.00;;;;;;;;5090894;28;45274;-75
2023/07/08 09:21:06;;;;;;;;;6.33;6.33;;;;;;;;5083363;28;46711;-74
2023/07/08 09:23:33;;;;;;;;;5.33;5.33;;;;;;;;5082669;28;45218;-77
2023/07/08 09:26:05;;;;;;;;;7.00;6.33;;;;;;;;5075416;28;45453;-76
2023/07/08 09:28:37;;;;;;;;;5.33;5.33;;;;;;;;5078870;27;45488;-76
2023/07/08 09:31:05;;;;;;;;;6.33;6.33;;;;;;;;5103011;27;46281;-77
2023/07/08 09:33:30;;;;;;;;;6.50;5.25;;;;;;;;5103383;27;45330;-77
2023/07/08 09:35:55;;;;;;;;;6.00;6.00;;;;;;;;5113832;27;45421;-75
2023/07/08 09:38:21;;;;;;;;;6.00;6.00;;;;;;;;5121674;27;45521;-76
2023/07/08 09:40:53;;;;;;;;;7.67;7.67;;;;;;;;5120920;27;45274;-75
2023/07/08 09:43:26;;;;;;;;;7.00;7.00;;;;;;;;5120695;27;45251;-76
2023/07/08 09:45:51;;;;;;;;;6.00;5.67;;;;;;;;5100549;27;45351;-74
2023/07/08 09:48:18;;;;;;;;;6.00;6.00;;;;;;;;5095570;28;44677;-75
2023/07/08 09:50:44;;;;;;;;;8.00;6.67;;;;;;;;5095606;28;45317;-76
2023/07/08 09:53:13;;;;;;;;;8.67;8.33;;;;;;;;5081044;28;45318;-75
2023/07/08 09:55:38;;;;;;;;;7.00;7.00;;;;;;;;5082142;28;44590;-75
2023/07/08 09:58:04;;;;;;;;;5.67;5.67;;;;;;;;5097225;28;45420;-75
2023/07/08 10:00:36;;;;;;;;;7.67;7.67;;;;;;;;5087673;28;45317;-74
2023/07/08 10:03:11;;;;;;;;;7.00;7.00;;;;;;;;5078323;28;45254;-75
2023/07/08 10:05:38;;;;;;;;;6.75;6.75;;;;;;;;5094831;28;45220;-75
2023/07/08 10:08:10;;;;;;;;;8.00;8.00;;;;;;;;5090260;28;45135;-76
2023/07/08 10:10:37;;;;;;;;;7.75;7.75;;;;;;;;5093860;28;45489;-75
2023/07/08 10:13:02;;;;;;;;;6.67;6.67;;;;;;;;5096489;28;44692;-75
2023/07/08 10:15:38;;;;;;;;;9.33;8.00;;;;;;;;5076144;28;45414;-74
2023/07/08 10:18:03;;;;;;;;;7.67;7.67;;;;;;;;5094030;28;45151;-75
2023/07/08 10:20:35;;;;;;;;;7.00;7.00;;;;;;;;5098032;28;45162;-76
2023/07/08 10:23:19;;;;;;;;;6.67;6.67;;;;;;;;5095037;28;44724;-75
2023/07/08 10:25:53;;;;;;;;;8.00;8.00;;;;;;;;5077259;28;45467;-75
2023/07/08 10:28:18;;;;;;;;;9.00;8.33;;;;;;;;5097763;27;45311;-76
2023/07/08 10:30:59;;;;;;;;;8.00;8.00;;;;;;;;5098352;27;45408;-75
2023/07/08 10:33:45;;;;;;;;;7.00;7.00;;;;;;;;5084735;28;45352;-76
2023/07/08 10:36:13;;;;;;;;;9.33;8.00;;;;;;;;5081327;28;44753;-77
2023/07/08 10:38:41;;;;;;;;;6.00;6.00;;;;;;;;5092328;28;45414;-76
2023/07/08 10:41:14;;;;;;;;;8.67;8.33;;;;;;;;5093997;28;46219;-76
2023/07/08 10:43:42;;;;;;;;;9.67;9.67;;;;;;;;5093603;28;45375;-76
2023/07/08 10:46:13;;;;;;;;;6.67;6.67;;;;;;;;5099043;28;45156;-76
2023/07/08 10:48:57;;;;;;;;;8.25;8.00;;;;;;;;5081931;28;46033;-75
2023/07/08 10:51:31;;;;;;;;;7.67;7.67;;;;;;;;5099595;28;45180;-75
2023/07/08 10:54:15;;;;;;;;;8.33;8.33;;;;;;;;5066300;28;45399;-77
2023/07/08 10:56:51;;;;;;;;;8.33;8.33;;;;;;;;5097438;28;45166;-77
2023/07/08 10:59:28;;;;;;;;;8.67;8.67;;;;;;;;5097287;28;45336;-74
2023/07/08 11:01:54;;;;;;;;;7.33;6.67;;;;;;;;5099761;28;45224;-75
2023/07/08 11:04:34;;;;;;;;;5.67;5.67;;;;;;;;5098906;28;45271;-75
2023/07/08 11:07:12;;;;;;;;;9.67;8.33;;;;;;;;5098349;28;44636;-74
2023/07/08 11:09:44;;;;;;;;;7.67;7.67;;;;;;;;5079535;28;46219;-75
2023/07/08 11:12:13;;;;;;;;;7.67;7.67;;;;;;;;5092601;28;46341;-75
2023/07/08 11:14:55;;;;;;;;;7.33;7.33;;;;;;;;5091320;28;45374;-74
2023/07/08 11:17:24;;;;;;;;;8.00;7.67;;;;;;;;5072013;28;45246;-75
2023/07/08 11:19:56;;;;;;;;;8.33;7.67;;;;;;;;5093636;28;45251;-74
2023/07/08 11:22:22;;;;;;;;;5.67;5.67;;;;;;;;5090984;28;45379;-74
2023/07/08 11:24:48;;;;;;;;;6.25;6.25;;;;;;;;5093345;28;44710;-74
2023/07/08 11:27:21;;;;;;;;;7.00;7.00;;;;;;;;5071835;28;45378;-73
2023/07/08 11:29:50;;;;;;;;;8.50;8.00;;;;;;;;5091726;27;45433;-73
2023/07/08 11:32:17;;;;;;;;;7.25;7.25;;;;;;;;5094883;27;46782;-74
2023/07/08 11:34:44;;;;;;;;;8.00;8.00;;;;;;;;5079045;28;45155;-74
2023/07/08 11:37:10;;;;;;;;;7.67;7.67;;;;;;;;5080207;28;45351;-74
2023/07/08 11:39:41;;;;;;;;;7.75;7.75;;;;;;;;5068029;28;45425;-73
2023/07/08 11:42:09;;;;;;;;;6.50;6.50;;;;;;;;5062423;28;46510;-73
2023/07/08 11:44:34;;;;;;;;;8.00;8.00;;;;;;;;5062832;28;45351;-74
2023/07/08 11:46:59;;;;;;;;;7.33;7.33;;;;;;;;5081562;28;45327;-74
2023/07/08 11:49:25;;;;;;;;;7.50;7.25;;;;;;;;5079868;28;45278;-73
2023/07/08 11:51:51;;;;;;;;;7.75;6.75;;;;;;;;5081501;28;44884;-74
2023/07/08 11:54:26;;;;;;;;;8.25;6.50;;;;;;;;5083309;28;45397;-73
2023/07/08 11:56:56;;;;;;;;;5.75;5.75;;;;;;;;5081171;28;45377;-74
2023/07/08 11:59:23;;;;;;;;;7.00;7.00;;;;;;;;5084674;28;45231;-75
2023/07/08 12:02:11;;;;;;;;;7.25;7.25;;;;;;;;5084813;28;45259;-74
2023/07/08 12:04:52;;;;;;;;;8.00;8.00;;;;;;;;5085883;28;45401;-74
2023/07/08 12:07:20;;;;;;;;;6.25;6.25;;;;;;;;5075609;28;45416;-74
2023/07/08 12:10:09;;;;;;;;;8.50;8.50;;;;;;;;5094677;28;45228;-75
2023/07/08 12:12:36;;;;;;;;;6.00;5.00;;;;;;;;5080425;28;45246;-74
2023/07/08 12:15:11;;;;;;;;;6.75;5.75;;;;;;;;5088139;28;45437;-75
2023/07/08 12:17:38;;;;;;;;;4.00;4.00;;;;;;;;5061886;28;45279;-76
2023/07/08 12:20:06;;;;;;;;;5.75;5.25;;;;;;;;5061620;28;45392;-75
2023/07/08 12:22:32;;;;;;;;;7.50;6.00;;;;;;;;5061646;28;46122;-75
2023/07/08 12:25:00;;;;;;;;;6.75;6.75;;;;;;;;5046590;28;46403;-78
2023/07/08 12:27:26;;;;;;;;;6.50;6.50;;;;;;;;5062471;28;45280;-78
2023/07/08 12:29:51;;;;;;;;;8.75;8.25;;;;;;;;5070251;27;47150;-78
2023/07/08 12:32:16;;;;;;;;;6.25;6.25;;;;;;;;5101761;27;45322;-78
2023/07/08 12:34:41;;;;;;;;;6.00;6.00;;;;;;;;5084367;27;45740;-77
2023/07/08 12:37:10;;;;;;;;;7.25;6.75;;;;;;;;5103077;27;45146;-78
2023/07/08 12:39:35;;;;;;;;;8.00;7.75;;;;;;;;5084200;27;46344;-78
2023/07/08 12:42:01;;;;;;;;;6.50;6.50;;;;;;;;5102808;27;46327;-78
2023/07/08 12:44:26;;;;;;;;;6.00;6.00;;;;;;;;5102578;27;45466;-78
2023/07/08 12:46:52;;;;;;;;;8.00;7.33;;;;;;;;5102523;27;45440;-78
2023/07/08 12:49:19;;;;;;;;;7.00;7.00;;;;;;;;5102536;27;45471;-78
2023/07/08 12:51:45;;;;;;;;;7.33;7.33;;;;;;;;5102664;27;45343;-78
2023/07/08 12:54:11;;;;;;;;;5.00;5.00;;;;;;;;5102961;27;45290;-78
2023/07/08 12:56:37;;;;;;;;;7.33;7.33;;;;;;;;5103006;27;45262;-78
2023/07/08 12:59:03;;;;;;;;;9.50;8.75;;;;;;;;5084747;27;46227;-78
2023/07/08 13:01:30;;;;;;;;;7.67;7.67;;;;;;;;5102600;27;45268;-79
2023/07/08 13:03:59;;;;;;;;;8.33;7.00;;;;;;;;5083510;27;45353;-78
2023/07/08 13:06:27;;;;;;;;;8.00;8.00;;;;;;;;5084173;27;45320;-78
2023/07/08 13:08:53;;;;;;;;;7.00;7.00;;;;;;;;5102163;27;45448;-79
2023/07/08 13:11:21;;;;;;;;;8.00;8.00;;;;;;;;5084222;27;48155;-78
2023/07/08 13:13:58;;;;;;;;;7.50;7.50;;;;;;;;5083660;27;45394;-78
2023/07/08 13:16:27;;;;;;;;;5.67;5.00;;;;;;;;5102599;27;45377;-78
2023/07/08 13:18:52;;;;;;;;;7.25;7.00;;;;;;;;5103059;27;45559;-78
2023/07/08 13:21:18;;;;;;;;;5.67;5.67;;;;;;;;5084553;27;48494;-78
2023/07/08 13:23:43;;;;;;;;;6.67;6.67;;;;;;;;5102639;27;45268;-78
2023/07/08 13:26:13;;;;;;;;;8.33;7.67;;;;;;;;5083675;27;45295;-78
2023/07/08 13:28:44;;;;;;;;;7.50;7.00;;;;;;;;5099379;27;45344;-78
2023/07/08 13:31:14;;;;;;;;;9.00;8.00;;;;;;;;5080859;28;45361;-79
2023/07/08 13:33:44;;;;;;;;;6.33;6.33;;;;;;;;5081004;28;45429;-77
2023/07/08 13:36:09;;;;;;;;;7.00;7.00;;;;;;;;5062822;28;45413;-78
2023/07/08 13:38:37;;;;;;;;;7.50;7.50;;;;;;;;5063068;28;46762;-78
2023/07/08 13:41:03;;;;;;;;;5.67;5.67;;;;;;;;5064428;28;47250;-78
2023/07/08 13:43:30;;;;;;;;;7.00;7.00;;;;;;;;5081439;28;45337;-78
2023/07/08 13:45:56;;;;;;;;;7.75;6.00;;;;;;;;5081332;28;45262;-79
2023/07/08 13:48:26;;;;;;;;;5.33;5.33;;;;;;;;5082560;28;45220;-78
2023/07/08 13:50:57;;;;;;;;;8.00;8.00;;;;;;;;5083671;28;47210;-78
2023/07/08 13:53:24;;;;;;;;;7.50;7.50;;;;;;;;5084155;28;45215;-77
2023/07/08 13:55:56;;;;;;;;;6.00;5.75;;;;;;;;5082975;28;45283;-78
2023/07/08 13:58:26;;;;;;;;;34.67;26.00;;;;;;;;5063795;28;46165;-78
2023/07/08 14:00:51;;;;;;;;;29.33;20.00;;;;;;;;5083292;28;45713;-78
2023/07/08 14:03:17;;;;;;;;;6.00;6.00;;;;;;;;5063829;28;45415;-77
2023/07/08 14:05:43;;;;;;;;;6.33;6.33;;;;;;;;5083994;28;45263;-78
2023/07/08 14:08:15;;;;;;;;;6.00;6.00;;;;;;;;5081666;28;45540;-79
2023/07/08 14:10:41;;;;;;;;;6.67;6.67;;;;;;;;5081199;28;45229;-78
2023/07/08 14:13:06;;;;;;;;;7.00;7.00;;;;;;;;5080482;28;45371;-78
2023/07/08 14:15:32;;;;;;;;;8.00;7.33;;;;;;;;5081089;28;45429;-78
2023/07/08 14:17:57;;;;;;;;;8.33;8.00;;;;;;;;5082058;28;45591;-78
2023/07/08 14:20:23;;;;;;;;;7.00;7.00;;;;;;;;5081685;28;45680;-78
2023/07/08 14:22:48;;;;;;;;;7.33;7.33;;;;;;;;5081547;28;45350;-78
2023/07/08 14:25:15;;;;;;;;;8.67;7.33;;;;;;;;5081510;28;45249;-78
2023/07/08 14:27:40;;;;;;;;;7.00;7.00;;;;;;;;5062527;28;46134;-80
2023/07/08 14:30:08;;;;;;;;;9.00;9.00;;;;;;;;5095441;27;45469;-78
2023/07/08 14:32:33;;;;;;;;;7.33;7.33;;;;;;;;5101349;27;45267;-78
2023/07/08 14:35:00;;;;;;;;;6.67;6.67;;;;;;;;5101982;27;45556;-78
2023/07/08 14:37:25;;;;;;;;;6.33;6.33;;;;;;;;5101261;27;45252;-78